Tunica, Louisiana
Current Conditions -  °F | °C
As of 7:15 PM on Saturday 20 Dec 2014 (Local Time) from KHZR Reporting Station
Clear Clear  
Wind Chill: 48°   Ceiling: Unl
Heat Index: 48°   Visibility: 10mi
Dew Point: 46°   Wind: 0mph
Humidity: 91%   Direction: NA
Pressure: 30.17"   Gusts: NA
Location:  30.93°N, 91.56°W
Report Text: KHZR 210115Z AUTO 00000KT 10SM CLR 09/08 A3017 RMK AO2 T00900076
Loading
Personal Weather Stations






























Interactive Weather Map New forecast layout! Learn more

10-Day Weather Forecast

Advertisements
Track Severe Weather on mobile